James Clark Ross — ZDLP — position and weather

sailwx.info

Track history (hours):
 
Tides and Currents Weather Stations Pressure Air Temp Water Temp Dewpoint Dewpoint Depression Visibility Wind Speed Wind Dir Waves Ship Positions

Oceanographic research ship James Clark Ross (UK)

Detailed information on ship capabilities available from University of Delaware's Ocean Information Center and ARCUS's ALIAS (Arctic Logistics Information and Support) project.

Last reported at 2017-Jun-24 13:37 UTC. Time now 2017-Jun-25 05:17 UTC.
Position N 50°54' W 001°24'.

Length 99 m; beam 18.8 m; draft 6.3 m.

Type: Ship. MMSI: 740339000.

Date/timePositionNaut miles runAvg speedWind from/ knotsBaromVisibWave heightAir tempDewpointWater temp
2017-Jun-24 13:37N 50°54' W 001°24'0 0.0
2017-Jun-24 13:22N 50°54' W 001°24'0 0.0
2017-Jun-24 12:52N 50°54' W 001°24'0 0.0
2017-Jun-24 12:19N 50°54' W 001°24'0 0.0
2017-Jun-24 11:46N 50°54' W 001°24'0 0.0
2017-Jun-24 11:28N 50°54' W 001°24'0 0.0
2017-Jun-23 18:22N 50°54' W 001°24'0 0.0
2017-Jun-23 14:00N 50°54' W 001°24'0 0.0
2017-Jun-23 13:00N 50°54' W 001°24'0 0.0
2017-Jun-23 12:24N 50°54' W 001°24'0 0.0
2017-Jun-23 11:54N 50°54' W 001°24'0 0.0
2017-Jun-23 11:31N 50°54' W 001°24'0 0.0
2017-Jun-22 01:24N 50°54' W 001°24'0 0.0
2017-Jun-22 01:00N 50°54' W 001°24'0 0.0
2017-Jun-21 07:30N 50°54' W 001°24'0 0.6
2017-Jun-21 06:59N 50°53' W 001°23'2 5.0
2017-Jun-21 06:30N 50°51' W 001°21'4 8.0
2017-Jun-21 06:00N 50°48' W 001°18'4 8.7
2017-Jun-21 05:30N 50°46' W 001°12'4 9.0
2017-Jun-21 05:00N 50°45' W 001°05'5 9.6
2017-Jun-21 04:30N 50°42' W 000°58'5 9.7
2017-Jun-21 04:00N 50°37' W 000°59'5 9.4
2017-Jun-21 03:30N 50°33' W 001°01'510.5
2017-Jun-21 03:00N 50°32' W 001°09'510.7
2017-Jun-21 02:30N 50°31' W 001°18'3 4.1
2017-Jun-21 01:49N 50°32' W 001°13'2 6.9
2017-Jun-21 01:31N 50°30' W 001°12'4 7.6
2017-Jun-21 01:00N 50°31' W 001°18'3 5.5
2017-Jun-21 00:30N 50°30' W 001°21'4 6.9
2017-Jun-20 23:58N 50°30' W 001°15'2 4.4
2017-Jun-20 23:29N 50°32' W 001°15'3 6.2
2017-Jun-20 23:00N 50°30' W 001°19'4 7.8
2017-Jun-20 22:29N 50°31' W 001°13'2 3.9
2017-Jun-20 22:00N 50°31' W 001°16'2 4.8
2017-Jun-20 21:30N 50°31' W 001°20'4 8.8
2017-Jun-20 21:00N 50°31' W 001°13'2 4.5
2017-Jun-20 20:30N 50°31' W 001°16'2 4.0
2017-Jun-20 20:00N 50°30' W 001°19'1 2.5
2017-Jun-20 19:28N 50°32' W 001°18'4 8.1
2017-Jun-20 19:00N 50°30' W 001°24'5 9.8
2017-Jun-20 18:30N 50°26' W 001°28'510.4
2017-Jun-20 18:00N 50°23' W 001°35'510.8
2017-Jun-20 17:30N 50°20' W 001°42'611.2
2017-Jun-20 17:00N 50°17' W 001°49'611.3
2017-Jun-20 16:30N 50°14' W 001°57'5 9.9
2017-Jun-20 16:00N 50°09' W 001°59'510.7
2017-Jun-20 15:30N 50°04' W 002°03'611.3
2017-Jun-20 15:00N 50°01' W 002°10'10 9.5
2017-Jun-20 13:59N 49°56' W 002°23'4 8.4
2017-Jun-20 13:29N 49°55' W 002°30'5 7.8
2017-Jun-20 12:51N 49°54' W 002°37'3 7.4
2017-Jun-20 12:25N 49°53' W 002°42'3 7.1
2017-Jun-20 12:00N 49°52' W 002°46'3 6.7
2017-Jun-20 11:30N 49°51' W 002°51'4 6.5
2017-Jun-20 10:52N 49°49' W 002°57'2 6.5
2017-Jun-20 10:30N 49°48' W 003°00'3 6.5
2017-Jun-20 09:59N 49°46' W 003°05'3 6.4
2017-Jun-20 09:30N 49°45' W 003°09'3 6.4
2017-Jun-20 09:00N 49°43' W 003°13'3 6.4
2017-Jun-20 08:30N 49°42' W 003°17'3 6.7
2017-Jun-20 08:00N 49°40' W 003°22'3 6.8
2017-Jun-20 07:30N 49°38' W 003°26'4 6.9
2017-Jun-20 07:00N 49°37' W 003°31'4 7.1
2017-Jun-20 06:29N 49°35' W 003°36'8 7.3
2017-Jun-20 05:23N 49°31' W 003°47'4 7.4
2017-Jun-20 04:47N 49°28' W 003°52'3 7.7
2017-Jun-20 04:21N 49°27' W 003°57'3 7.9
2017-Jun-20 04:00N 49°25' W 004°00'8 8.2
2017-Jun-20 03:05N 49°21' W 004°10'1 8.5
2017-Jun-20 02:59N 49°21' W 004°12'4 8.6
2017-Jun-20 02:30N 49°19' W 004°17'10 8.8
2017-Jun-20 01:19N 49°13' W 004°30'21 9.0
2017-Jun-19 22:56N 49°03' W 004°59'7 8.9
2017-Jun-19 22:10N 48°59' W 005°08'1 8.7
2017-Jun-19 22:00N 48°59' W 005°10'4 8.5
2017-Jun-19 21:30N 48°57' W 005°16'4 8.3
2017-Jun-19 21:00N 48°54' W 005°21'4 8.1
2017-Jun-19 20:30N 48°52' W 005°26'5 7.8
2017-Jun-19 19:53N 48°50' W 005°33'3 7.5
2017-Jun-19 19:30N 48°49' W 005°36'4 7.3
2017-Jun-19 19:00N 48°46' W 005°40'11 7.4
2017-Jun-19 17:33N 48°36' W 005°47'0 7.3
2017-Jun-19 17:30N 48°36' W 005°47'4 7.2
2017-Jun-19 17:00N 48°33' W 005°50'10 7.2
2017-Jun-19 15:34N 48°23' W 005°57'20 6.6
2017-Jun-19 12:34N 48°06' W 006°12'56 8.5
2017-Jun-19 06:00N 47°18' W 006°54'102 8.5 080 / 151014.610.8 18.616.617.8
2017-Jun-18 18:00N 45°54' W 008°18'108 9.0 080 / 181015.0 5.4 18.216.218.0
2017-Jun-18 06:00N 44°24' W 009°42'95 7.9 060 / 251014.3 5.4 18.216.017.7
2017-Jun-17 18:00N 43°00' W 010°42'58 8.3 010 / 171015.4 5.4 17.716.518.0
2017-Jun-17 11:00N 42°06' W 011°12'46 9.1 030 / 171019.1 2.2 17.816.118.5
2017-Jun-17 06:00N 41°24' W 011°36'64 9.2 030 / 231018.4 5.4 17.316.818.6
2017-Jun-16 23:00N 40°24' W 012°06'20 9.1 010 / 311020.2 5.4 17.716.019.1
2017-Jun-16 20:47N 40°07' W 012°20'3 8.8
2017-Jun-16 20:30N 40°05' W 012°21'7 8.7
2017-Jun-16 19:40N 39°58' W 012°25'1 8.5
2017-Jun-16 19:30N 39°57' W 012°25'4 9.0
2017-Jun-16 19:00N 39°52' W 012°28'4 8.9
2017-Jun-16 18:30N 39°48' W 012°30'4 8.7
2017-Jun-16 18:00N 39°44' W 012°32'3270.4
2017-Jun-16 18:00N 39°42' W 012°30'4 7.3 360 / 261019.4 5.4 18.315.419.2
2017-Jun-16 17:30N 39°40' W 012°34'4 8.9
2017-Jun-16 17:00N 39°36' W 012°36'4 8.9
2017-Jun-16 16:30N 39°32' W 012°38'5 8.9
2017-Jun-16 15:59N 39°28' W 012°41'4 8.7
2017-Jun-16 15:30N 39°24' W 012°43'5 9.0
2017-Jun-16 14:58N 39°19' W 012°45'4 9.0
2017-Jun-16 14:30N 39°15' W 012°47'8 8.0
2017-Jun-16 13:30N 39°08' W 012°51'5 8.9
2017-Jun-16 12:55N 39°03' W 012°53'4 9.6
2017-Jun-16 12:30N 38°60' W 012°55'5 9.4
2017-Jun-16 12:00N 38°55' W 012°57'5 9.4
2017-Jun-16 11:30N 38°51' W 012°60'5 9.6
2017-Jun-16 10:59N 38°46' W 013°02'3 5.7
2017-Jun-16 10:30N 38°44' W 013°03'28 9.8
2017-Jun-16 07:35N 38°17' W 013°17'8810.3
2017-Jun-15 23:00N 36°54' W 013°54'16 8.5 030 / 291022.110.8 19.016.220.3
2017-Jun-15 21:10N 36°42' W 014°06'4 9.2
2017-Jun-15 20:46N 36°38' W 014°07'5 9.3
2017-Jun-15 20:12N 36°33' W 014°10'3 8.7
2017-Jun-15 19:49N 36°30' W 014°11'5 8.9
2017-Jun-15 19:13N 36°25' W 014°14'21 2.5
2017-Jun-15 11:00N 36°06' W 014°24'15631.3 020 / 261022.410.8 19.515.320.4
2017-Jun-15 06:00N 33°30' W 014°36'62 8.8 010 / 251020.6 5.4 19.014.420.5
2017-Jun-14 23:00N 34°24' W 015°12'5010.1 020 / 221020.910.8 19.413.921.0
2017-Jun-14 18:00N 33°36' W 015°30'   010 / 201018.9 5.4 20.013.821.4
Track history (hours):
 
Tides and Currents Weather Stations Pressure Air Temp Water Temp Dewpoint Dewpoint Depression Visibility Wind Speed Wind Dir Waves Ship Positions

Oceanographic research ship James Clark Ross (UK)

Detailed information on ship capabilities available from University of Delaware's Ocean Information Center and ARCUS's ALIAS (Arctic Logistics Information and Support) project.

Last reported at 2017-Jun-24 13:37 UTC. Time now 2017-Jun-25 05:17 UTC.
Position N 50°54' W 001°24'.

Length 99 m; beam 18.8 m; draft 6.3 m.

Type: Ship. MMSI: 740339000.

Date/timePositionNaut miles runAvg speedWind from/ knotsBaromVisibWave heightAir tempDewpointWater temp
2017-Jun-24 13:37N 50°54' W 001°24'0 0.0
2017-Jun-24 13:22N 50°54' W 001°24'0 0.0
2017-Jun-24 12:52N 50°54' W 001°24'0 0.0
2017-Jun-24 12:19N 50°54' W 001°24'0 0.0
2017-Jun-24 11:46N 50°54' W 001°24'0 0.0
2017-Jun-24 11:28N 50°54' W 001°24'0 0.0
2017-Jun-23 18:22N 50°54' W 001°24'0 0.0
2017-Jun-23 14:00N 50°54' W 001°24'0 0.0
2017-Jun-23 13:00N 50°54' W 001°24'0 0.0
2017-Jun-23 12:24N 50°54' W 001°24'0 0.0
2017-Jun-23 11:54N 50°54' W 001°24'0 0.0
2017-Jun-23 11:31N 50°54' W 001°24'0 0.0
2017-Jun-22 01:24N 50°54' W 001°24'0 0.0
2017-Jun-22 01:00N 50°54' W 001°24'0 0.0
2017-Jun-21 07:30N 50°54' W 001°24'0 0.6
2017-Jun-21 06:59N 50°53' W 001°23'2 5.0
2017-Jun-21 06:30N 50°51' W 001°21'4 8.0
2017-Jun-21 06:00N 50°48' W 001°18'4 8.7
2017-Jun-21 05:30N 50°46' W 001°12'4 9.0
2017-Jun-21 05:00N 50°45' W 001°05'5 9.6
2017-Jun-21 04:30N 50°42' W 000°58'5 9.7
2017-Jun-21 04:00N 50°37' W 000°59'5 9.4
2017-Jun-21 03:30N 50°33' W 001°01'510.5
2017-Jun-21 03:00N 50°32' W 001°09'510.7
2017-Jun-21 02:30N 50°31' W 001°18'3 4.1
2017-Jun-21 01:49N 50°32' W 001°13'2 6.9
2017-Jun-21 01:31N 50°30' W 001°12'4 7.6
2017-Jun-21 01:00N 50°31' W 001°18'3 5.5
2017-Jun-21 00:30N 50°30' W 001°21'4 6.9
2017-Jun-20 23:58N 50°30' W 001°15'2 4.4
2017-Jun-20 23:29N 50°32' W 001°15'3 6.2
2017-Jun-20 23:00N 50°30' W 001°19'4 7.8
2017-Jun-20 22:29N 50°31' W 001°13'2 3.9
2017-Jun-20 22:00N 50°31' W 001°16'2 4.8
2017-Jun-20 21:30N 50°31' W 001°20'4 8.8
2017-Jun-20 21:00N 50°31' W 001°13'2 4.5
2017-Jun-20 20:30N 50°31' W 001°16'2 4.0
2017-Jun-20 20:00N 50°30' W 001°19'1 2.5
2017-Jun-20 19:28N 50°32' W 001°18'4 8.1
2017-Jun-20 19:00N 50°30' W 001°24'5 9.8
2017-Jun-20 18:30N 50°26' W 001°28'510.4
2017-Jun-20 18:00N 50°23' W 001°35'510.8
2017-Jun-20 17:30N 50°20' W 001°42'611.2
2017-Jun-20 17:00N 50°17' W 001°49'611.3
2017-Jun-20 16:30N 50°14' W 001°57'5 9.9
2017-Jun-20 16:00N 50°09' W 001°59'510.7
2017-Jun-20 15:30N 50°04' W 002°03'611.3
2017-Jun-20 15:00N 50°01' W 002°10'10 9.5
2017-Jun-20 13:59N 49°56' W 002°23'4 8.4
2017-Jun-20 13:29N 49°55' W 002°30'5 7.8
2017-Jun-20 12:51N 49°54' W 002°37'3 7.4
2017-Jun-20 12:25N 49°53' W 002°42'3 7.1
2017-Jun-20 12:00N 49°52' W 002°46'3 6.7
2017-Jun-20 11:30N 49°51' W 002°51'4 6.5
2017-Jun-20 10:52N 49°49' W 002°57'2 6.5
2017-Jun-20 10:30N 49°48' W 003°00'3 6.5
2017-Jun-20 09:59N 49°46' W 003°05'3 6.4
2017-Jun-20 09:30N 49°45' W 003°09'3 6.4
2017-Jun-20 09:00N 49°43' W 003°13'3 6.4
2017-Jun-20 08:30N 49°42' W 003°17'3 6.7
2017-Jun-20 08:00N 49°40' W 003°22'3 6.8
2017-Jun-20 07:30N 49°38' W 003°26'4 6.9
2017-Jun-20 07:00N 49°37' W 003°31'4 7.1
2017-Jun-20 06:29N 49°35' W 003°36'8 7.3
2017-Jun-20 05:23N 49°31' W 003°47'4 7.4
2017-Jun-20 04:47N 49°28' W 003°52'3 7.7
2017-Jun-20 04:21N 49°27' W 003°57'3 7.9
2017-Jun-20 04:00N 49°25' W 004°00'8 8.2
2017-Jun-20 03:05N 49°21' W 004°10'1 8.5
2017-Jun-20 02:59N 49°21' W 004°12'4 8.6
2017-Jun-20 02:30N 49°19' W 004°17'10 8.8
2017-Jun-20 01:19N 49°13' W 004°30'21 9.0
2017-Jun-19 22:56N 49°03' W 004°59'7 8.9
2017-Jun-19 22:10N 48°59' W 005°08'1 8.7
2017-Jun-19 22:00N 48°59' W 005°10'4 8.5
2017-Jun-19 21:30N 48°57' W 005°16'4 8.3
2017-Jun-19 21:00N 48°54' W 005°21'4 8.1
2017-Jun-19 20:30N 48°52' W 005°26'5 7.8
2017-Jun-19 19:53N 48°50' W 005°33'3 7.5
2017-Jun-19 19:30N 48°49' W 005°36'4 7.3
2017-Jun-19 19:00N 48°46' W 005°40'11 7.4
2017-Jun-19 17:33N 48°36' W 005°47'0 7.3
2017-Jun-19 17:30N 48°36' W 005°47'4 7.2
2017-Jun-19 17:00N 48°33' W 005°50'10 7.2
2017-Jun-19 15:34N 48°23' W 005°57'20 6.6
2017-Jun-19 12:34N 48°06' W 006°12'56 8.5
2017-Jun-19 06:00N 47°18' W 006°54'102 8.5 080 / 151014.610.8 18.616.617.8
2017-Jun-18 18:00N 45°54' W 008°18'108 9.0 080 / 181015.0 5.4 18.216.218.0
2017-Jun-18 06:00N 44°24' W 009°42'95 7.9 060 / 251014.3 5.4 18.216.017.7
2017-Jun-17 18:00N 43°00' W 010°42'58 8.3 010 / 171015.4 5.4 17.716.518.0
2017-Jun-17 11:00N 42°06' W 011°12'46 9.1 030 / 171019.1 2.2 17.816.118.5
2017-Jun-17 06:00N 41°24' W 011°36'64 9.2 030 / 231018.4 5.4 17.316.818.6
2017-Jun-16 23:00N 40°24' W 012°06'20 9.1 010 / 311020.2 5.4 17.716.019.1
2017-Jun-16 20:47N 40°07' W 012°20'3 8.8
2017-Jun-16 20:30N 40°05' W 012°21'7 8.7
2017-Jun-16 19:40N 39°58' W 012°25'1 8.5
2017-Jun-16 19:30N 39°57' W 012°25'4 9.0
2017-Jun-16 19:00N 39°52' W 012°28'4 8.9
2017-Jun-16 18:30N 39°48' W 012°30'4 8.7
2017-Jun-16 18:00N 39°44' W 012°32'3270.4
2017-Jun-16 18:00N 39°42' W 012°30'4 7.3 360 / 261019.4 5.4 18.315.419.2
2017-Jun-16 17:30N 39°40' W 012°34'4 8.9
2017-Jun-16 17:00N 39°36' W 012°36'4 8.9
2017-Jun-16 16:30N 39°32' W 012°38'5 8.9
2017-Jun-16 15:59N 39°28' W 012°41'4 8.7
2017-Jun-16 15:30N 39°24' W 012°43'5 9.0
2017-Jun-16 14:58N 39°19' W 012°45'4 9.0
2017-Jun-16 14:30N 39°15' W 012°47'8 8.0
2017-Jun-16 13:30N 39°08' W 012°51'5 8.9
2017-Jun-16 12:55N 39°03' W 012°53'4 9.6
2017-Jun-16 12:30N 38°60' W 012°55'5 9.4
2017-Jun-16 12:00N 38°55' W 012°57'5 9.4
2017-Jun-16 11:30N 38°51' W 012°60'5 9.6
2017-Jun-16 10:59N 38°46' W 013°02'3 5.7
2017-Jun-16 10:30N 38°44' W 013°03'28 9.8
2017-Jun-16 07:35N 38°17' W 013°17'8810.3
2017-Jun-15 23:00N 36°54' W 013°54'16 8.5 030 / 291022.110.8 19.016.220.3
2017-Jun-15 21:10N 36°42' W 014°06'4 9.2
2017-Jun-15 20:46N 36°38' W 014°07'5 9.3
2017-Jun-15 20:12N 36°33' W 014°10'3 8.7
2017-Jun-15 19:49N 36°30' W 014°11'5 8.9
2017-Jun-15 19:13N 36°25' W 014°14'21 2.5
2017-Jun-15 11:00N 36°06' W 014°24'15631.3 020 / 261022.410.8 19.515.320.4
2017-Jun-15 06:00N 33°30' W 014°36'62 8.8 010 / 251020.6 5.4 19.014.420.5
2017-Jun-14 23:00N 34°24' W 015°12'5010.1 020 / 221020.910.8 19.413.921.0
2017-Jun-14 18:00N 33°36' W 015°30'   010 / 201018.9 5.4 20.013.821.4

Dump ship's entire track history